Glenwood, Maryland
Current Conditions -  °F | °C
As of 8:30 PM on Thursday 18 Dec 2014 (Local Time) from KCGS Reporting Station
Clear Clear  
Wind Chill: 31°   Ceiling: Unl
Heat Index: 36°   Visibility: 10mi
Dew Point: 23°   Wind: 6mph
Humidity: 60%   Direction: 310°NW
Pressure: 30.12"   Gusts: NA
Location:  39°N, 77.11°W
Report Text: KCGS 190130Z AUTO 31005KT 10SM CLR 02/M05 A3012 RMK AO1
Loading
Personal Weather Stations






























Interactive Weather Map New forecast layout! Learn more

10-Day Weather Forecast

Advertisements
Track Severe Weather on mobile